createdAt,value
2024-02-12T00:00:26.591Z,990.31
2024-02-12T00:01:26.732Z,990.31
2024-02-12T00:02:26.805Z,990.34
2024-02-12T00:03:26.833Z,990.38
2024-02-12T00:04:26.970Z,990.42
2024-02-12T00:05:27.036Z,990.42
2024-02-12T00:06:27.181Z,990.45
2024-02-12T00:07:27.151Z,990.41
2024-02-12T00:08:27.342Z,990.42
2024-02-12T00:09:27.390Z,990.43
2024-02-12T00:10:28.481Z,990.45
2024-02-12T00:11:27.491Z,990.49
2024-02-12T00:12:27.523Z,990.52
2024-02-12T00:13:27.636Z,990.57
2024-02-12T00:14:27.773Z,990.54
2024-02-12T00:15:27.864Z,990.51
2024-02-12T00:16:27.898Z,990.51
2024-02-12T00:17:28.107Z,990.53
2024-02-12T00:18:28.141Z,990.51
2024-02-12T00:19:28.210Z,990.51
2024-02-12T00:20:28.288Z,990.51
2024-02-12T00:21:28.335Z,990.56
2024-02-12T00:22:28.403Z,990.54
2024-02-12T00:23:28.497Z,990.54
2024-02-12T00:24:28.581Z,990.56
2024-02-12T00:25:28.670Z,990.56
2024-02-12T00:26:28.851Z,990.62
2024-02-12T00:27:28.795Z,990.61
2024-02-12T00:28:28.900Z,990.62
2024-02-12T00:29:29.120Z,990.63
2024-02-12T00:30:29.050Z,990.63
2024-02-12T00:31:29.218Z,990.64
2024-02-12T00:32:29.332Z,990.61
2024-02-12T00:33:29.342Z,990.61
2024-02-12T00:34:29.399Z,990.63
2024-02-12T00:35:29.523Z,990.62
2024-02-12T00:36:29.557Z,990.64
2024-02-12T00:37:29.623Z,990.65
2024-02-12T00:38:29.782Z,990.65
2024-02-12T00:39:29.778Z,990.66
2024-02-12T00:40:29.846Z,990.67
2024-02-12T00:41:30.044Z,990.64
2024-02-12T00:42:30.112Z,990.66
2024-02-12T00:43:30.153Z,990.64
2024-02-12T00:44:30.247Z,990.68
2024-02-12T00:45:30.253Z,990.68
2024-02-12T00:46:30.334Z,990.70
2024-02-12T00:47:30.618Z,990.67
2024-02-12T00:48:30.601Z,990.69
2024-02-12T00:49:30.561Z,990.73
2024-02-12T00:50:30.727Z,990.75
2024-02-12T00:51:30.713Z,990.74
2024-02-12T00:52:30.784Z,990.78
2024-02-12T00:53:30.920Z,990.77
2024-02-12T00:54:31.017Z,990.76
2024-02-12T00:55:31.052Z,990.75
2024-02-12T00:56:31.166Z,990.72
2024-02-12T00:57:31.174Z,990.76
2024-02-12T00:58:31.240Z,990.80
2024-02-12T00:59:31.453Z,990.78
2024-02-12T01:00:31.395Z,990.80
2024-02-12T01:01:31.510Z,990.81
2024-02-12T01:02:31.721Z,990.78
2024-02-12T01:03:31.693Z,990.81
2024-02-12T01:04:31.727Z,990.83
2024-02-12T01:05:31.888Z,990.80
2024-02-12T01:06:31.932Z,990.84
2024-02-12T01:07:31.929Z,990.84
2024-02-12T01:08:32.077Z,990.85
2024-02-12T01:09:32.131Z,990.86
2024-02-12T01:10:32.162Z,990.87
2024-02-12T01:11:32.294Z,990.87
2024-02-12T01:12:32.361Z,990.91
2024-02-12T01:13:32.401Z,990.89
2024-02-12T01:14:32.525Z,990.89
2024-02-12T01:15:32.585Z,990.91
2024-02-12T01:16:32.685Z,990.83
2024-02-12T01:17:32.976Z,990.89
2024-02-12T01:18:32.921Z,990.90
2024-02-12T01:19:32.905Z,990.94
2024-02-12T01:21:34.372Z,990.92
2024-02-12T01:22:35.567Z,990.95
2024-02-12T01:23:35.583Z,990.98
2024-02-12T01:24:35.555Z,990.97
2024-02-12T01:25:35.713Z,991.04
2024-02-12T01:26:36.433Z,991.08
2024-02-12T01:27:35.773Z,991.10
2024-02-12T01:28:35.893Z,991.08
2024-02-12T01:29:36.005Z,991.14
2024-02-12T01:30:36.082Z,991.13
2024-02-12T01:31:36.100Z,991.13
2024-02-12T01:32:36.351Z,991.14
2024-02-12T01:33:36.313Z,991.14
2024-02-12T01:34:36.346Z,991.17
2024-02-12T01:35:36.510Z,991.16
2024-02-12T01:36:36.526Z,991.16
2024-02-12T01:37:36.627Z,991.16
2024-02-12T01:38:36.734Z,991.18
2024-02-12T01:39:36.774Z,991.18
2024-02-12T01:40:36.881Z,991.22
2024-02-12T01:41:36.968Z,991.26
2024-02-12T01:42:37.047Z,991.22
2024-02-12T01:43:37.088Z,991.23
2024-02-12T01:44:37.256Z,991.22
2024-02-12T01:45:37.269Z,991.26
2024-02-12T01:46:37.336Z,991.30
2024-02-12T01:47:37.450Z,991.28
2024-02-12T01:48:37.710Z,991.21
2024-02-12T01:49:37.652Z,991.25
2024-02-12T01:50:37.648Z,991.22
2024-02-12T01:51:37.699Z,991.24
2024-02-12T01:52:37.799Z,991.27
2024-02-12T01:53:37.915Z,991.27
2024-02-12T01:54:37.952Z,991.29
2024-02-12T01:55:38.001Z,991.28
2024-02-12T01:56:38.117Z,991.27
2024-02-12T01:57:38.143Z,991.25
2024-02-12T01:58:38.224Z,991.28
2024-02-12T01:59:38.316Z,991.31
2024-02-12T02:00:38.392Z,991.31
2024-02-12T02:01:38.461Z,991.33
2024-02-12T02:02:38.636Z,991.35
2024-02-12T02:03:38.653Z,991.37
2024-02-12T02:04:38.675Z,991.40
2024-02-12T02:05:38.808Z,991.43
2024-02-12T02:06:38.940Z,991.44
2024-02-12T02:07:38.932Z,991.46
2024-02-12T02:08:39.066Z,991.42
2024-02-12T02:09:39.051Z,991.42
2024-02-12T02:10:39.115Z,991.41
2024-02-12T02:11:39.238Z,991.41
2024-02-12T02:12:39.294Z,991.43
2024-02-12T02:13:39.393Z,991.44
2024-02-12T02:14:39.483Z,991.47
2024-02-12T02:15:39.515Z,991.50
2024-02-12T02:16:39.604Z,991.49
2024-02-12T02:17:39.738Z,991.52
2024-02-12T02:18:39.881Z,991.52
2024-02-12T02:19:39.869Z,991.49
2024-02-12T02:20:39.990Z,991.48
2024-02-12T02:21:40.093Z,991.49
2024-02-12T02:22:40.199Z,991.51
2024-02-12T02:23:40.316Z,991.51
2024-02-12T02:24:40.318Z,991.52
2024-02-12T02:25:40.354Z,991.49
2024-02-12T02:26:40.483Z,991.48
2024-02-12T02:27:40.472Z,991.49
2024-02-12T02:28:40.564Z,991.49
2024-02-12T02:29:40.658Z,991.51
2024-02-12T02:30:40.752Z,991.50
2024-02-12T02:31:40.797Z,991.52
2024-02-12T02:32:41.117Z,991.58
2024-02-12T02:33:41.115Z,991.55
2024-02-12T02:34:41.014Z,991.56
2024-02-12T02:35:41.235Z,991.58
2024-02-12T02:36:41.204Z,991.60
2024-02-12T02:37:41.248Z,991.63
2024-02-12T02:38:41.461Z,991.61
2024-02-12T02:39:41.529Z,991.64
2024-02-12T02:40:41.475Z,991.68
2024-02-12T02:41:41.640Z,991.71
2024-02-12T02:42:41.649Z,991.72
2024-02-12T02:43:41.713Z,991.71
2024-02-12T02:44:41.848Z,991.68
2024-02-12T02:45:41.878Z,991.71
2024-02-12T02:46:41.976Z,991.70
2024-02-12T02:47:42.186Z,991.73
2024-02-12T02:48:42.212Z,991.72
2024-02-12T02:49:42.223Z,991.71
2024-02-12T02:50:42.429Z,991.69
2024-02-12T02:51:42.420Z,991.72
2024-02-12T02:52:42.448Z,991.72
2024-02-12T02:53:42.623Z,991.78
2024-02-12T02:54:42.605Z,991.78
2024-02-12T02:55:42.701Z,991.80
2024-02-12T02:56:42.852Z,991.82
2024-02-12T02:57:42.878Z,991.87
2024-02-12T02:58:42.962Z,991.86
2024-02-12T02:59:43.151Z,991.89
2024-02-12T03:00:43.191Z,991.89
2024-02-12T03:01:43.278Z,991.90
2024-02-12T03:02:43.365Z,991.88
2024-02-12T03:03:43.487Z,991.93
2024-02-12T03:04:43.484Z,991.96
2024-02-12T03:05:43.705Z,991.95
2024-02-12T03:06:43.704Z,991.98
2024-02-12T03:07:43.755Z,991.99
2024-02-12T03:08:43.936Z,991.99
2024-02-12T03:09:43.918Z,992.02
2024-02-12T03:10:43.945Z,992.01
2024-02-12T03:11:44.063Z,992.04
2024-02-12T03:12:44.153Z,992.07
2024-02-12T03:13:44.213Z,992.07
2024-02-12T03:14:44.343Z,992.09
2024-02-12T03:15:44.366Z,992.10
2024-02-12T03:16:44.457Z,992.11
2024-02-12T03:17:44.832Z,992.13
2024-02-12T03:18:44.712Z,992.16
2024-02-12T03:19:44.677Z,992.18
2024-02-12T03:20:44.789Z,992.16
2024-02-12T03:21:44.832Z,992.14
2024-02-12T03:22:44.916Z,992.17
2024-02-12T03:23:45.020Z,992.18
2024-02-12T03:24:45.123Z,992.15
2024-02-12T03:25:45.190Z,992.17
2024-02-12T03:26:45.261Z,992.17
2024-02-12T03:27:45.459Z,992.20
2024-02-12T03:28:45.423Z,992.18
2024-02-12T03:29:45.500Z,992.19
2024-02-12T03:30:45.578Z,992.22
2024-02-12T03:31:45.646Z,992.22
2024-02-12T03:32:45.816Z,992.23
2024-02-12T03:33:45.913Z,992.19
2024-02-12T03:34:45.986Z,992.25
2024-02-12T03:35:45.988Z,992.25
2024-02-12T03:36:46.034Z,992.24
2024-02-12T03:37:46.107Z,992.27
2024-02-12T03:38:46.312Z,992.27
2024-02-12T03:39:46.360Z,992.27
2024-02-12T03:40:46.344Z,992.23
2024-02-12T03:41:46.446Z,992.29
2024-02-12T03:42:46.493Z,992.31
2024-02-12T03:43:46.558Z,992.33
2024-02-12T03:44:46.650Z,992.32
2024-02-12T03:45:46.776Z,992.31
2024-02-12T03:46:46.851Z,992.32
2024-02-12T03:47:47.049Z,992.30
2024-02-12T03:48:46.980Z,992.31
2024-02-12T03:49:47.028Z,992.30
2024-02-12T03:50:47.167Z,992.32
2024-02-12T03:51:47.185Z,992.32
2024-02-12T03:52:47.279Z,992.37
2024-02-12T03:53:47.318Z,992.39
2024-02-12T03:54:47.449Z,992.42
2024-02-12T03:55:47.520Z,992.42
2024-02-12T03:56:47.569Z,992.48
2024-02-12T03:57:47.649Z,992.47
2024-02-12T03:58:47.758Z,992.47
2024-02-12T03:59:47.819Z,992.53
2024-02-12T04:00:47.956Z,992.58
2024-02-12T04:01:48.017Z,992.51
2024-02-12T04:02:48.498Z,992.50
2024-02-12T04:03:48.153Z,992.53
2024-02-12T04:04:48.225Z,992.56
2024-02-12T04:05:48.458Z,992.57
2024-02-12T04:06:48.395Z,992.58
2024-02-12T04:07:48.460Z,992.58
2024-02-12T04:08:48.579Z,992.61
2024-02-12T04:09:48.640Z,992.63
2024-02-12T04:10:48.718Z,992.63
2024-02-12T04:11:48.827Z,992.65
2024-02-12T04:12:48.982Z,992.61
2024-02-12T04:13:48.995Z,992.68
2024-02-12T04:14:49.151Z,992.67
2024-02-12T04:15:49.217Z,992.73
2024-02-12T04:16:49.266Z,992.72
2024-02-12T04:17:49.400Z,992.73
2024-02-12T04:18:49.476Z,992.73
2024-02-12T04:19:49.497Z,992.75
2024-02-12T04:20:49.609Z,992.77
2024-02-12T04:21:49.693Z,992.79
2024-02-12T04:22:49.744Z,992.87
2024-02-12T04:23:50.075Z,992.83
2024-02-12T04:24:49.902Z,992.90
2024-02-12T04:25:50.008Z,992.90
2024-02-12T04:26:50.093Z,992.92
2024-02-12T04:27:50.131Z,992.95
2024-02-12T04:28:50.531Z,992.94
2024-02-12T04:29:50.296Z,992.95
2024-02-12T04:30:50.373Z,992.98
2024-02-12T04:31:50.455Z,993.01
2024-02-12T04:32:50.688Z,993.00
2024-02-12T04:33:50.718Z,993.01
2024-02-12T04:34:50.692Z,993.05
2024-02-12T04:35:50.758Z,993.07
2024-02-12T04:36:50.874Z,993.08
2024-02-12T04:37:50.981Z,993.15
2024-02-12T04:38:51.063Z,993.16
2024-02-12T04:39:51.121Z,993.18
2024-02-12T04:40:51.213Z,993.20
2024-02-12T04:41:51.292Z,993.22
2024-02-12T04:42:51.367Z,993.16
2024-02-12T04:43:51.436Z,993.24
2024-02-12T04:44:51.541Z,993.21
2024-02-12T04:45:51.621Z,993.22
2024-02-12T04:46:51.702Z,993.22
2024-02-12T04:47:52.131Z,993.21
2024-02-12T04:48:51.930Z,993.23
2024-02-12T04:49:52.066Z,993.23
2024-02-12T04:50:52.000Z,993.26
2024-02-12T04:51:52.101Z,993.27
2024-02-12T04:52:52.250Z,993.22
2024-02-12T04:53:52.241Z,993.25
2024-02-12T04:54:52.322Z,993.33
2024-02-12T04:55:52.422Z,993.29
2024-02-12T04:56:52.484Z,993.28
2024-02-12T04:57:52.557Z,993.31
2024-02-12T04:58:52.735Z,993.38
2024-02-12T04:59:52.710Z,993.34
2024-02-12T05:00:53.208Z,993.37
2024-02-12T05:01:52.883Z,993.36
2024-02-12T05:02:52.928Z,993.41
2024-02-12T05:03:53.038Z,993.34
2024-02-12T05:04:53.103Z,993.41
2024-02-12T05:05:53.256Z,993.38
2024-02-12T05:06:53.278Z,993.41
2024-02-12T05:07:53.340Z,993.42
2024-02-12T05:08:53.391Z,993.41
2024-02-12T05:09:53.454Z,993.42
2024-02-12T05:10:53.622Z,993.44
2024-02-12T05:11:53.674Z,993.50
2024-02-12T05:12:53.734Z,993.49
2024-02-12T05:13:53.794Z,993.50
2024-02-12T05:14:53.901Z,993.53
2024-02-12T05:15:54.018Z,993.60
2024-02-12T05:16:54.119Z,993.57
2024-02-12T05:17:54.245Z,993.59
2024-02-12T05:18:54.403Z,993.53
2024-02-12T05:19:54.362Z,993.56
2024-02-12T05:20:54.402Z,993.57
2024-02-12T05:21:54.456Z,993.54
2024-02-12T05:22:54.542Z,993.57
2024-02-12T05:23:54.602Z,993.54
2024-02-12T05:24:54.672Z,993.61
2024-02-12T05:25:54.842Z,993.59
2024-02-12T05:26:54.927Z,993.59
2024-02-12T05:27:54.941Z,993.60
2024-02-12T05:28:55.052Z,993.56
2024-02-12T05:29:55.094Z,993.58
2024-02-12T05:30:55.169Z,993.58
2024-02-12T05:31:55.309Z,993.63
2024-02-12T05:32:55.496Z,993.63
2024-02-12T05:33:55.495Z,993.63
2024-02-12T05:34:56.832Z,993.65
2024-02-12T05:35:55.597Z,993.64
2024-02-12T05:36:55.675Z,993.67
2024-02-12T05:37:55.825Z,993.71
2024-02-12T05:38:55.835Z,993.70
2024-02-12T05:39:55.892Z,993.72
2024-02-12T05:40:55.992Z,993.69
2024-02-12T05:41:56.046Z,993.67
2024-02-12T05:42:56.158Z,993.70
2024-02-12T05:43:56.250Z,993.68
2024-02-12T05:44:56.300Z,993.67
2024-02-12T05:45:56.420Z,993.71
2024-02-12T05:46:56.492Z,993.69
2024-02-12T05:47:56.606Z,993.68
2024-02-12T05:48:56.657Z,993.68
2024-02-12T05:49:56.792Z,993.74
2024-02-12T05:50:56.783Z,993.75
2024-02-12T05:51:56.861Z,993.71
2024-02-12T05:52:56.979Z,993.75
2024-02-12T05:53:57.037Z,993.75
2024-02-12T05:54:57.100Z,993.72
2024-02-12T05:55:57.217Z,993.71
2024-02-12T05:56:57.273Z,993.72
2024-02-12T05:57:57.329Z,993.70
2024-02-12T05:58:57.417Z,993.69
2024-02-12T05:59:57.505Z,993.66
2024-02-12T06:00:57.616Z,993.73
2024-02-12T06:01:57.720Z,993.70
2024-02-12T06:02:57.771Z,993.77
2024-02-12T06:03:57.888Z,993.76
2024-02-12T06:04:58.081Z,993.73
2024-02-12T06:05:58.146Z,993.76
2024-02-12T06:06:58.286Z,993.72
2024-02-12T06:07:58.248Z,993.76
2024-02-12T06:08:58.340Z,993.73
2024-02-12T06:09:58.336Z,993.73
2024-02-12T06:10:58.468Z,993.75
2024-02-12T06:11:58.541Z,993.75
2024-02-12T06:12:58.576Z,993.75
2024-02-12T06:13:58.654Z,993.75
2024-02-12T06:14:58.737Z,993.76
2024-02-12T06:15:58.823Z,993.77
2024-02-12T06:16:58.924Z,993.79
2024-02-12T06:17:59.030Z,993.78
2024-02-12T06:18:59.037Z,993.87
2024-02-12T06:19:59.125Z,993.87
2024-02-12T06:20:59.183Z,993.88
2024-02-12T06:21:59.272Z,993.88
2024-02-12T06:22:59.408Z,993.89
2024-02-12T06:23:59.432Z,993.94
2024-02-12T06:24:59.516Z,993.98
2024-02-12T06:25:59.585Z,993.94
2024-02-12T06:26:59.624Z,993.98
2024-02-12T06:27:59.760Z,993.99
2024-02-12T06:28:59.830Z,993.97
2024-02-12T06:29:59.887Z,993.97
2024-02-12T06:30:59.952Z,994.02
2024-02-12T06:32:00.106Z,994.02
2024-02-12T06:33:00.348Z,994.01
2024-02-12T06:34:00.336Z,994.02
2024-02-12T06:35:00.324Z,994.06
2024-02-12T06:36:00.344Z,994.06
2024-02-12T06:37:00.395Z,994.10
2024-02-12T06:38:00.560Z,994.12
2024-02-12T06:39:00.712Z,994.14
2024-02-12T06:40:00.675Z,994.16
2024-02-12T06:41:00.766Z,994.18
2024-02-12T06:42:00.824Z,994.19
2024-02-12T06:43:00.897Z,994.20
2024-02-12T06:44:01.044Z,994.23
2024-02-12T06:45:01.019Z,994.26
2024-02-12T06:46:01.121Z,994.28
2024-02-12T06:47:01.350Z,994.32
2024-02-12T06:48:01.271Z,994.27
2024-02-12T06:49:01.333Z,994.36
2024-02-12T06:50:01.475Z,994.35
2024-02-12T06:51:01.686Z,994.38
2024-02-12T06:52:01.607Z,994.41
2024-02-12T06:53:01.714Z,994.43
2024-02-12T06:54:01.904Z,994.44
2024-02-12T06:55:01.874Z,994.50
2024-02-12T06:56:02.143Z,994.49
2024-02-12T06:57:02.010Z,994.50
2024-02-12T06:58:02.173Z,994.55
2024-02-12T06:59:02.230Z,994.52
2024-02-12T07:00:02.334Z,994.52
2024-02-12T07:01:02.378Z,994.60
2024-02-12T07:02:02.461Z,994.61
2024-02-12T07:03:02.446Z,994.60
2024-02-12T07:04:02.597Z,994.63
2024-02-12T07:05:02.646Z,994.64
2024-02-12T07:06:02.817Z,994.65
2024-02-12T07:07:02.758Z,994.62
2024-02-12T07:08:02.966Z,994.61
2024-02-12T07:09:02.890Z,994.65
2024-02-12T07:10:02.961Z,994.68
2024-02-12T07:11:03.110Z,994.68
2024-02-12T07:12:03.117Z,994.69
2024-02-12T07:13:03.175Z,994.77
2024-02-12T07:14:03.266Z,994.74
2024-02-12T07:15:03.328Z,994.78
2024-02-12T07:16:03.416Z,994.80
2024-02-12T07:17:03.518Z,994.77
2024-02-12T07:18:03.603Z,994.84
2024-02-12T07:19:03.689Z,994.83
2024-02-12T07:20:03.777Z,994.84
2024-02-12T07:21:05.626Z,994.87
2024-02-12T07:22:10.014Z,994.93
2024-02-12T07:23:04.013Z,994.92
2024-02-12T07:24:04.107Z,994.92
2024-02-12T07:25:04.169Z,994.92
2024-02-12T07:26:04.367Z,994.96
2024-02-12T07:27:04.296Z,994.96
2024-02-12T07:28:04.417Z,994.98
2024-02-12T07:29:04.463Z,995.02
2024-02-12T07:30:04.541Z,995.06
2024-02-12T07:31:04.685Z,995.04
2024-02-12T07:32:04.689Z,995.08
2024-02-12T07:33:04.968Z,995.07
2024-02-12T07:34:05.060Z,995.13
2024-02-12T07:35:05.028Z,995.13
2024-02-12T07:36:05.024Z,995.14
2024-02-12T07:37:05.192Z,995.14
2024-02-12T07:38:05.269Z,995.19
2024-02-12T07:39:05.264Z,995.21
2024-02-12T07:40:05.299Z,995.23
2024-02-12T07:41:05.397Z,995.21
2024-02-12T07:42:05.459Z,995.24
2024-02-12T07:43:05.559Z,995.24
2024-02-12T07:44:05.658Z,995.25
2024-02-12T07:45:05.678Z,995.26
2024-02-12T07:46:05.930Z,995.28
2024-02-12T07:47:05.844Z,995.29
2024-02-12T07:48:06.086Z,995.37
2024-02-12T07:49:06.083Z,995.37
2024-02-12T07:50:06.077Z,995.41
2024-02-12T07:51:06.166Z,995.36
2024-02-12T07:52:06.306Z,995.43
2024-02-12T07:53:06.333Z,995.44
2024-02-12T07:54:06.554Z,995.47
2024-02-12T07:55:06.516Z,995.50
2024-02-12T07:56:06.568Z,995.48
2024-02-12T07:57:06.743Z,995.48
2024-02-12T07:58:06.781Z,995.50
2024-02-12T07:59:06.837Z,995.49
2024-02-12T08:00:06.877Z,995.54
2024-02-12T08:01:07.006Z,995.54
2024-02-12T08:02:07.100Z,995.57
2024-02-12T08:03:07.208Z,995.56
2024-02-12T08:04:07.235Z,995.59
2024-02-12T08:05:07.370Z,995.51
2024-02-12T08:06:07.365Z,995.56
2024-02-12T08:07:07.569Z,995.58
2024-02-12T08:08:07.619Z,995.58
2024-02-12T08:09:07.544Z,995.57
2024-02-12T08:10:07.637Z,995.63
2024-02-12T08:11:07.775Z,995.59
2024-02-12T08:12:07.855Z,995.61
2024-02-12T08:13:07.905Z,995.60
2024-02-12T08:14:07.985Z,995.58
2024-02-12T08:15:08.046Z,995.59
2024-02-12T08:16:08.107Z,995.59
2024-02-12T08:17:08.918Z,995.60
2024-02-12T08:18:11.585Z,995.64
2024-02-12T08:19:08.385Z,995.63
2024-02-12T08:20:08.462Z,995.65
2024-02-12T08:21:08.564Z,995.68
2024-02-12T08:22:08.641Z,995.64
2024-02-12T08:23:08.723Z,995.69
2024-02-12T08:24:08.755Z,995.68
2024-02-12T08:25:08.811Z,995.69
2024-02-12T08:26:08.978Z,995.71
2024-02-12T08:27:08.949Z,995.72
2024-02-12T08:28:09.383Z,995.75
2024-02-12T08:29:09.189Z,995.76
2024-02-12T08:30:09.223Z,995.74
2024-02-12T08:31:09.284Z,995.76
2024-02-12T08:32:09.385Z,995.77
2024-02-12T08:33:09.571Z,995.74
2024-02-12T08:34:09.505Z,995.77
2024-02-12T08:35:09.558Z,995.77
2024-02-12T08:36:09.610Z,995.79
2024-02-12T08:37:09.827Z,995.82
2024-02-12T08:38:09.874Z,995.82
2024-02-12T08:39:11.142Z,995.81
2024-02-12T08:40:09.881Z,995.86
2024-02-12T08:41:10.038Z,995.86
2024-02-12T08:42:10.087Z,995.92
2024-02-12T08:43:10.205Z,995.93
2024-02-12T08:44:10.335Z,995.94
2024-02-12T08:45:10.293Z,995.94
2024-02-12T08:46:10.383Z,995.94
2024-02-12T08:47:10.461Z,995.98
2024-02-12T08:48:10.635Z,995.95
2024-02-12T08:49:10.648Z,995.98
2024-02-12T08:50:10.740Z,995.97
2024-02-12T08:51:10.802Z,995.99
2024-02-12T08:52:10.844Z,995.97
2024-02-12T08:53:10.988Z,995.98
2024-02-12T08:54:11.180Z,995.99
2024-02-12T08:55:13.425Z,996.03
2024-02-12T08:56:11.157Z,996.03
2024-02-12T08:57:11.188Z,996.06
2024-02-12T08:58:11.260Z,996.05
2024-02-12T08:59:11.407Z,996.11
2024-02-12T09:00:11.442Z,996.08
2024-02-12T09:01:11.608Z,996.11
2024-02-12T09:02:11.617Z,996.10
2024-02-12T09:03:11.726Z,996.11
2024-02-12T09:04:11.763Z,996.14
2024-02-12T09:05:12.679Z,996.14
2024-02-12T09:06:11.893Z,996.18
2024-02-12T09:07:12.009Z,996.19
2024-02-12T09:08:12.129Z,996.22
2024-02-12T09:09:12.193Z,996.19
2024-02-12T09:10:12.273Z,996.21
2024-02-12T09:11:12.351Z,996.27
2024-02-12T09:12:12.397Z,996.27
2024-02-12T09:13:12.486Z,996.32
2024-02-12T09:14:12.632Z,996.31
2024-02-12T09:15:12.674Z,996.36
2024-02-12T09:16:12.748Z,996.35
2024-02-12T09:17:12.810Z,996.34
2024-02-12T09:18:13.260Z,996.33
2024-02-12T09:19:13.030Z,996.37
2024-02-12T09:20:13.369Z,996.39
2024-02-12T09:21:13.191Z,996.38
2024-02-12T09:22:13.270Z,996.42
2024-02-12T09:23:13.420Z,996.44
2024-02-12T09:24:13.397Z,996.45
2024-02-12T09:25:13.589Z,996.47
2024-02-12T09:26:13.594Z,996.59
2024-02-12T09:27:13.625Z,996.55
2024-02-12T09:28:13.734Z,996.55
2024-02-12T09:29:13.806Z,996.57
2024-02-12T09:30:13.848Z,996.63
2024-02-12T09:31:13.919Z,996.63
2024-02-12T09:32:14.010Z,996.63
2024-02-12T09:33:14.310Z,996.63
2024-02-12T09:34:14.297Z,996.68
2024-02-12T09:35:14.316Z,996.67
2024-02-12T09:36:14.394Z,996.66
2024-02-12T09:37:14.382Z,996.70
2024-02-12T09:38:14.542Z,996.72
2024-02-12T09:39:14.642Z,996.73
2024-02-12T09:40:14.675Z,996.71
2024-02-12T09:41:14.803Z,996.73
2024-02-12T09:42:14.809Z,996.73
2024-02-12T09:43:15.333Z,996.76
2024-02-12T09:44:14.974Z,996.74
2024-02-12T09:45:15.031Z,996.81
2024-02-12T09:46:15.183Z,996.78
2024-02-12T09:47:15.213Z,996.81
2024-02-12T09:48:15.418Z,996.76
2024-02-12T09:49:15.396Z,996.81
2024-02-12T09:50:15.616Z,996.82
2024-02-12T09:51:15.595Z,996.86
2024-02-12T09:52:15.626Z,996.86
2024-02-12T09:53:15.729Z,996.87
2024-02-12T09:54:15.705Z,996.87
2024-02-12T09:55:15.811Z,996.90
2024-02-12T09:56:15.944Z,996.87
2024-02-12T09:57:16.000Z,996.89
2024-02-12T09:58:16.071Z,996.92
2024-02-12T09:59:16.176Z,996.90
2024-02-12T10:00:16.245Z,996.91
2024-02-12T10:01:16.295Z,996.95
2024-02-12T10:02:16.330Z,996.97
2024-02-12T10:03:16.491Z,996.96
2024-02-12T10:04:16.481Z,997.01
2024-02-12T10:05:16.631Z,996.96
2024-02-12T10:06:16.839Z,997.04
2024-02-12T10:07:16.756Z,997.01
2024-02-12T10:08:17.052Z,996.99
2024-02-12T10:09:17.074Z,997.03
2024-02-12T10:10:17.094Z,996.99
2024-02-12T10:11:17.209Z,997.04
2024-02-12T10:12:17.124Z,996.96
2024-02-12T10:13:17.225Z,997.00
2024-02-12T10:14:17.342Z,997.07
2024-02-12T10:15:17.387Z,997.03
2024-02-12T10:16:17.491Z,997.04
2024-02-12T10:17:17.567Z,997.05
2024-02-12T10:18:17.990Z,997.09
2024-02-12T10:19:17.729Z,997.10
2024-02-12T10:20:17.804Z,997.15
2024-02-12T10:21:17.813Z,997.08
2024-02-12T10:22:17.956Z,997.07
2024-02-12T10:23:18.160Z,997.14
2024-02-12T10:24:18.104Z,997.12
2024-02-12T10:25:18.152Z,997.10
2024-02-12T10:26:18.272Z,997.12
2024-02-12T10:27:18.353Z,997.14
2024-02-12T10:28:18.406Z,997.16
2024-02-12T10:29:18.491Z,997.16
2024-02-12T10:30:18.587Z,997.19
2024-02-12T10:31:18.610Z,997.17
2024-02-12T10:32:18.817Z,997.18
2024-02-12T10:33:19.265Z,997.19
2024-02-12T10:34:19.122Z,997.15
2024-02-12T10:35:18.988Z,997.19
2024-02-12T10:36:19.032Z,997.15
2024-02-12T10:37:19.742Z,997.18
2024-02-12T10:38:19.278Z,997.20
2024-02-12T10:39:19.316Z,997.24
2024-02-12T10:40:19.432Z,997.19
2024-02-12T10:41:19.494Z,997.21
2024-02-12T10:42:19.516Z,997.21
2024-02-12T10:43:19.660Z,997.25
2024-02-12T10:44:19.762Z,997.27
2024-02-12T10:45:19.788Z,997.24
2024-02-12T10:46:19.868Z,997.24
2024-02-12T10:47:19.957Z,997.29
2024-02-12T10:48:20.109Z,997.25
2024-02-12T10:49:20.209Z,997.23
2024-02-12T10:50:20.557Z,997.24
2024-02-12T10:52:58.594Z,997.24
2024-02-12T10:53:04.121Z,997.32
2024-02-12T10:54:04.234Z,997.29
2024-02-12T10:55:04.228Z,997.27
2024-02-12T10:56:04.323Z,997.34
2024-02-12T10:57:04.430Z,997.22
2024-02-12T10:58:04.488Z,997.27
2024-02-12T10:59:04.601Z,997.28
2024-02-12T11:00:04.641Z,997.31
2024-02-12T11:01:05.206Z,997.30
2024-02-12T11:02:04.823Z,997.37
2024-02-12T11:03:04.865Z,997.40
2024-02-12T11:04:04.982Z,997.42
2024-02-12T11:05:05.092Z,997.42
2024-02-12T11:06:05.167Z,997.44
2024-02-12T11:07:05.166Z,997.47
2024-02-12T11:08:05.341Z,997.48
2024-02-12T11:09:05.327Z,997.47
2024-02-12T11:10:05.390Z,997.45
2024-02-12T11:11:05.460Z,997.42
2024-02-12T11:12:05.526Z,997.44
2024-02-12T11:13:05.622Z,997.45
2024-02-12T11:14:05.777Z,997.48
2024-02-12T11:15:05.761Z,997.46
2024-02-12T11:16:05.845Z,997.48
2024-02-12T11:17:05.966Z,997.50
2024-02-12T11:18:06.083Z,997.53
2024-02-12T11:19:06.153Z,997.56
2024-02-12T11:20:06.270Z,997.54
2024-02-12T11:21:06.264Z,997.55
2024-02-12T11:22:06.328Z,997.57
2024-02-12T11:23:06.451Z,997.60
2024-02-12T11:24:06.527Z,997.65
2024-02-12T11:25:13.607Z,997.63
2024-02-12T11:26:06.701Z,997.66
2024-02-12T11:27:06.796Z,997.59
2024-02-12T11:28:06.782Z,997.58
2024-02-12T11:29:07.040Z,997.57
2024-02-12T11:30:06.929Z,997.58
2024-02-12T11:31:07.002Z,997.56
2024-02-12T11:32:07.196Z,997.59
2024-02-12T11:33:07.279Z,997.60
2024-02-12T11:34:07.259Z,997.57
2024-02-12T11:35:07.324Z,997.64
2024-02-12T11:36:07.370Z,997.61
2024-02-12T11:37:07.503Z,997.64
2024-02-12T11:38:07.603Z,997.67
2024-02-12T11:39:08.122Z,997.64
2024-02-12T11:40:07.697Z,997.75
2024-02-12T11:41:07.892Z,997.78
2024-02-12T11:42:07.978Z,997.81
2024-02-12T11:43:07.975Z,997.74
2024-02-12T11:44:08.062Z,997.77
2024-02-12T11:45:08.132Z,997.78
2024-02-12T11:46:08.286Z,997.80
2024-02-12T11:47:08.346Z,997.72
2024-02-12T11:48:08.570Z,997.79
2024-02-12T11:49:08.879Z,997.80
2024-02-12T11:50:08.566Z,997.80
2024-02-12T11:51:08.566Z,997.82
2024-02-12T11:52:08.647Z,997.80
2024-02-12T11:53:10.004Z,997.80
2024-02-12T11:54:08.810Z,997.79
2024-02-12T11:55:08.913Z,997.80
2024-02-12T11:56:09.096Z,997.81
2024-02-12T11:57:09.012Z,997.84
2024-02-12T11:58:09.201Z,997.83
2024-02-12T11:59:11.249Z,997.87
2024-02-12T12:00:09.298Z,997.85
2024-02-12T12:01:09.342Z,997.80
2024-02-12T12:02:09.541Z,997.84
2024-02-12T12:03:09.505Z,997.79
2024-02-12T12:04:09.641Z,997.84
2024-02-12T12:05:11.398Z,997.85
2024-02-12T12:06:09.892Z,997.82
2024-02-12T12:07:09.880Z,997.85
2024-02-12T12:08:09.952Z,997.84
2024-02-12T12:09:10.071Z,997.80
2024-02-12T12:10:10.051Z,997.85
2024-02-12T12:11:11.879Z,997.88
2024-02-12T12:12:10.215Z,997.86
2024-02-12T12:13:10.338Z,997.83
2024-02-12T12:14:10.401Z,997.91
2024-02-12T12:15:10.408Z,997.88
2024-02-12T12:16:10.468Z,997.83
2024-02-12T12:17:29.517Z,997.88
2024-02-12T12:18:10.862Z,997.83
2024-02-12T12:19:11.061Z,997.85
2024-02-12T12:20:10.929Z,997.96
2024-02-12T12:21:10.910Z,997.93
2024-02-12T12:22:11.030Z,997.93
2024-02-12T12:23:11.300Z,997.92
2024-02-12T12:24:11.125Z,997.90
2024-02-12T12:25:11.237Z,997.96
2024-02-12T12:26:11.471Z,997.95
2024-02-12T12:27:11.709Z,997.95
2024-02-12T12:28:11.480Z,997.97
2024-02-12T12:29:11.568Z,997.99
2024-02-12T12:30:11.595Z,998.00
2024-02-12T12:31:11.645Z,997.96